createdAt,value
2023-03-19T05:00:44.895Z,99.99
2023-03-19T05:01:44.873Z,99.99
2023-03-19T05:02:44.800Z,99.99
2023-03-19T05:03:44.826Z,99.99
2023-03-19T05:04:44.765Z,99.99
2023-03-19T05:05:44.756Z,99.99
2023-03-19T05:06:44.804Z,99.99
2023-03-19T05:07:44.736Z,99.99
2023-03-19T05:08:44.706Z,99.99
2023-03-19T05:09:44.710Z,99.99
2023-03-19T05:10:44.715Z,99.99
2023-03-19T05:11:44.683Z,99.99
2023-03-19T05:12:44.655Z,99.99
2023-03-19T05:13:51.678Z,99.99
2023-03-19T05:14:44.642Z,99.99
2023-03-19T05:15:44.704Z,99.99
2023-03-19T05:16:44.662Z,99.99
2023-03-19T05:17:44.612Z,99.99
2023-03-19T05:18:44.571Z,99.99
2023-03-19T05:19:44.657Z,99.99
2023-03-19T05:20:44.551Z,99.99
2023-03-19T05:21:44.573Z,99.99
2023-03-19T05:22:44.592Z,99.99
2023-03-19T05:23:44.534Z,99.99
2023-03-19T05:24:44.494Z,99.99
2023-03-19T05:25:44.503Z,99.99
2023-03-19T05:26:44.475Z,99.99
2023-03-19T05:27:44.482Z,99.99
2023-03-19T05:28:44.537Z,99.99
2023-03-19T05:29:44.450Z,99.99
2023-03-19T05:30:44.488Z,99.99
2023-03-19T05:31:44.403Z,99.99
2023-03-19T05:32:44.471Z,99.99
2023-03-19T05:33:44.391Z,99.99
2023-03-19T05:34:44.443Z,99.99
2023-03-19T05:35:44.424Z,99.99
2023-03-19T05:36:44.361Z,99.99
2023-03-19T05:37:44.348Z,99.99
2023-03-19T05:38:44.359Z,99.99
2023-03-19T05:39:44.305Z,99.99
2023-03-19T05:40:44.331Z,99.99
2023-03-19T05:41:44.319Z,99.99
2023-03-19T05:42:44.280Z,99.99
2023-03-19T05:43:44.267Z,99.99
2023-03-19T05:44:44.279Z,99.99
2023-03-19T05:45:44.217Z,99.99
2023-03-19T05:46:44.262Z,99.99
2023-03-19T05:47:44.258Z,99.99
2023-03-19T05:48:44.211Z,99.99
2023-03-19T05:49:44.167Z,99.99
2023-03-19T05:50:44.190Z,99.99
2023-03-19T05:51:44.137Z,99.99
2023-03-19T05:52:44.136Z,99.99
2023-03-19T05:53:44.179Z,99.99
2023-03-19T05:54:44.121Z,99.99
2023-03-19T05:55:44.097Z,99.99
2023-03-19T05:56:44.102Z,99.99
2023-03-19T05:57:44.076Z,99.99
2023-03-19T05:58:44.098Z,99.99
2023-03-19T05:59:44.092Z,99.99
2023-03-19T06:00:44.091Z,99.99
2023-03-19T06:01:44.062Z,99.99
2023-03-19T06:02:51.093Z,99.99
2023-03-19T06:03:46.739Z,99.99
2023-03-19T06:04:43.984Z,99.99
2023-03-19T06:05:44.008Z,99.99
2023-03-19T06:06:43.965Z,99.99
2023-03-19T06:07:43.929Z,99.99
2023-03-19T06:08:43.987Z,99.99
2023-03-19T06:09:43.915Z,99.99
2023-03-19T06:10:43.915Z,99.99
2023-03-19T06:11:43.983Z,99.99
2023-03-19T06:12:43.906Z,99.99
2023-03-19T06:13:43.884Z,99.99
2023-03-19T06:14:43.872Z,99.99
2023-03-19T06:15:43.913Z,99.99
2023-03-19T06:16:43.838Z,99.99
2023-03-19T06:17:43.871Z,99.99
2023-03-19T06:18:43.832Z,99.99
2023-03-19T06:19:43.782Z,99.99
2023-03-19T06:20:43.791Z,99.99
2023-03-19T06:21:43.767Z,99.99
2023-03-19T06:22:43.771Z,99.99
2023-03-19T06:23:43.781Z,99.99
2023-03-19T06:24:43.742Z,99.99
2023-03-19T06:25:43.761Z,99.99
2023-03-19T06:26:43.746Z,99.99
2023-03-19T06:27:43.690Z,99.99
2023-03-19T06:28:43.676Z,99.99
2023-03-19T06:29:43.649Z,99.99
2023-03-19T06:30:43.721Z,99.99
2023-03-19T06:31:43.674Z,99.99
2023-03-19T06:32:43.737Z,99.99
2023-03-19T06:33:43.615Z,99.99
2023-03-19T06:34:43.620Z,99.99
2023-03-19T06:35:43.582Z,99.99
2023-03-19T06:36:43.763Z,99.99
2023-03-19T06:37:43.542Z,99.99
2023-03-19T06:38:43.686Z,99.99
2023-03-19T06:39:43.543Z,99.99
2023-03-19T06:40:43.521Z,99.99
2023-03-19T06:41:43.499Z,99.99
2023-03-19T06:42:43.565Z,99.99
2023-03-19T06:43:43.482Z,99.99
2023-03-19T06:44:43.490Z,99.99
2023-03-19T06:45:43.470Z,99.99
2023-03-19T06:46:43.468Z,99.99
2023-03-19T06:47:43.414Z,99.99
2023-03-19T06:48:43.600Z,99.99
2023-03-19T06:49:43.401Z,99.99
2023-03-19T06:50:43.401Z,99.99
2023-03-19T06:51:43.359Z,99.99
2023-03-19T06:52:43.389Z,99.99
2023-03-19T06:53:43.350Z,99.99
2023-03-19T06:54:43.404Z,99.99
2023-03-19T06:55:43.317Z,99.99
2023-03-19T06:56:43.377Z,99.99
2023-03-19T06:57:43.308Z,99.99
2023-03-19T06:58:43.299Z,99.99
2023-03-19T06:59:43.278Z,99.99
2023-03-19T07:00:43.395Z,99.99
2023-03-19T07:01:43.250Z,99.99
2023-03-19T07:02:43.256Z,99.99
2023-03-19T07:03:43.282Z,99.99
2023-03-19T07:04:43.242Z,99.99
2023-03-19T07:05:43.188Z,99.99
2023-03-19T07:06:43.269Z,99.99
2023-03-19T07:07:43.171Z,99.99
2023-03-19T07:08:43.184Z,99.99
2023-03-19T07:09:43.153Z,99.99
2023-03-19T07:10:43.167Z,99.99
2023-03-19T07:11:43.134Z,99.99
2023-03-19T07:12:43.190Z,99.99
2023-03-19T07:13:43.106Z,99.99
2023-03-19T07:14:43.104Z,99.99
2023-03-19T07:15:43.080Z,99.99
2023-03-19T07:16:43.146Z,99.99
2023-03-19T07:17:43.048Z,99.99
2023-03-19T07:18:43.094Z,99.99
2023-03-19T07:19:43.028Z,99.99
2023-03-19T07:20:43.041Z,99.99
2023-03-19T07:21:43.010Z,99.99
2023-03-19T07:22:43.000Z,99.99
2023-03-19T07:23:42.969Z,99.99
2023-03-19T07:24:43.024Z,99.99
2023-03-19T07:25:42.933Z,99.99
2023-03-19T07:26:42.939Z,99.99
2023-03-19T07:27:42.901Z,99.99
2023-03-19T07:28:42.929Z,99.99
2023-03-19T07:29:42.886Z,99.99
2023-03-19T07:30:42.940Z,99.99
2023-03-19T07:31:42.918Z,99.99
2023-03-19T07:32:42.932Z,99.99
2023-03-19T07:33:42.836Z,99.99
2023-03-19T07:34:42.851Z,99.99
2023-03-19T07:35:42.838Z,99.99
2023-03-19T07:36:42.854Z,99.99
2023-03-19T07:37:42.769Z,99.99
2023-03-19T07:38:42.792Z,99.99
2023-03-19T07:39:42.754Z,99.99
2023-03-19T07:40:51.366Z,99.99
2023-03-19T07:41:43.779Z,99.99
2023-03-19T07:42:45.046Z,99.99
2023-03-19T07:43:42.699Z,99.99
2023-03-19T07:44:42.708Z,99.99
2023-03-19T07:45:42.741Z,99.99
2023-03-19T07:46:42.689Z,99.99
2023-03-19T07:47:42.682Z,99.99
2023-03-19T07:48:42.655Z,99.99
2023-03-19T07:49:42.614Z,99.99
2023-03-19T07:50:42.695Z,99.99
2023-03-19T07:51:42.607Z,99.99
2023-03-19T07:52:42.607Z,99.99
2023-03-19T07:53:42.574Z,99.99
2023-03-19T07:54:42.583Z,99.99
2023-03-19T07:55:42.546Z,99.99
2023-03-19T07:56:42.645Z,98.50
2023-03-19T07:57:42.540Z,99.27
2023-03-19T07:58:42.524Z,99.78
2023-03-19T07:59:42.489Z,99.99
2023-03-19T08:00:42.517Z,99.99
2023-03-19T08:01:42.518Z,99.99
2023-03-19T08:02:42.506Z,98.40
2023-03-19T08:03:42.460Z,98.81
2023-03-19T08:04:42.652Z,99.63
2023-03-19T08:05:42.451Z,98.36
2023-03-19T08:06:42.410Z,97.95
2023-03-19T08:07:42.372Z,97.13
2023-03-19T08:08:42.371Z,96.47
2023-03-19T08:09:42.351Z,96.78
2023-03-19T08:10:42.406Z,95.56
2023-03-19T08:11:42.395Z,95.00
2023-03-19T08:12:42.351Z,95.81
2023-03-19T08:13:42.306Z,95.92
2023-03-19T08:14:42.300Z,94.59
2023-03-19T08:15:42.270Z,94.74
2023-03-19T08:16:42.373Z,95.65
2023-03-19T08:17:42.287Z,95.76
2023-03-19T08:18:42.249Z,95.45
2023-03-19T08:19:42.402Z,95.35
2023-03-19T08:20:42.230Z,96.37
2023-03-19T08:21:42.254Z,97.04
2023-03-19T08:22:42.194Z,95.31
2023-03-19T08:23:42.489Z,95.10
2023-03-19T08:24:42.172Z,93.57
2023-03-19T08:25:42.171Z,93.26
2023-03-19T08:26:42.175Z,94.29
2023-03-19T08:27:42.112Z,94.90
2023-03-19T08:28:42.123Z,93.67
2023-03-19T08:29:42.159Z,93.37
2023-03-19T08:30:42.138Z,93.26
2023-03-19T08:31:42.046Z,92.96
2023-03-19T08:32:42.078Z,93.26
2023-03-19T08:33:42.017Z,93.06
2023-03-19T08:34:42.030Z,92.45
2023-03-19T08:35:42.353Z,91.74
2023-03-19T08:36:42.018Z,91.79
2023-03-19T08:37:41.967Z,91.69
2023-03-19T08:38:41.969Z,92.00
2023-03-19T08:39:41.943Z,92.20
2023-03-19T08:40:41.945Z,91.89
2023-03-19T08:41:41.960Z,90.77
2023-03-19T08:42:44.456Z,91.18
2023-03-19T08:43:41.885Z,91.69
2023-03-19T08:44:41.895Z,92.16
2023-03-19T08:45:41.854Z,91.44
2023-03-19T08:46:41.961Z,90.12
2023-03-19T08:47:41.903Z,89.57
2023-03-19T08:48:41.844Z,89.97
2023-03-19T08:49:41.839Z,89.77
2023-03-19T08:50:41.833Z,89.53
2023-03-19T08:51:41.774Z,90.14
2023-03-19T08:52:41.785Z,89.42
2023-03-19T08:53:41.833Z,89.38
2023-03-19T08:54:41.802Z,89.18
2023-03-19T08:55:41.734Z,89.28
2023-03-19T08:56:41.766Z,88.32
2023-03-19T08:57:41.735Z,88.42
2023-03-19T08:58:41.727Z,88.48
2023-03-19T08:59:41.727Z,87.47
2023-03-19T09:00:41.713Z,87.43
2023-03-19T09:01:41.719Z,86.41
2023-03-19T09:02:41.675Z,86.07
2023-03-19T09:03:41.639Z,85.52
2023-03-19T09:04:41.826Z,84.20
2023-03-19T09:05:41.661Z,84.60
2023-03-19T09:06:41.601Z,84.30
2023-03-19T09:07:41.576Z,84.09
2023-03-19T09:08:41.581Z,84.13
2023-03-19T09:09:41.541Z,84.99
2023-03-19T09:10:41.559Z,85.80
2023-03-19T09:11:41.559Z,86.21
2023-03-19T09:12:41.532Z,85.96
2023-03-19T09:13:41.489Z,85.62
2023-03-19T09:14:41.509Z,84.70
2023-03-19T09:15:41.534Z,84.46
2023-03-19T09:16:41.639Z,83.54
2023-03-19T09:17:41.514Z,83.75
2023-03-19T09:18:41.451Z,83.51
2023-03-19T09:19:41.411Z,82.90
2023-03-19T09:20:41.454Z,81.18
2023-03-19T09:21:41.473Z,80.63
2023-03-19T09:22:41.387Z,78.97
2023-03-19T09:23:41.358Z,79.03
2023-03-19T09:24:41.376Z,79.13
2023-03-19T09:25:41.349Z,77.61
2023-03-19T09:26:41.368Z,77.17
2023-03-19T09:27:41.359Z,77.17
2023-03-19T09:28:41.323Z,77.34
2023-03-19T09:29:41.284Z,76.90
2023-03-19T09:30:41.302Z,75.24
2023-03-19T09:31:41.334Z,75.65
2023-03-19T09:32:41.387Z,75.95
2023-03-19T09:33:41.275Z,75.71
2023-03-19T09:34:41.327Z,75.41
2023-03-19T09:35:41.289Z,73.75
2023-03-19T09:36:41.272Z,72.64
2023-03-19T09:37:41.171Z,72.85
2023-03-19T09:38:41.172Z,71.94
2023-03-19T09:39:41.151Z,72.75
2023-03-19T09:40:41.165Z,72.04
2023-03-19T09:41:41.270Z,71.91
2023-03-19T09:42:41.099Z,72.71
2023-03-19T09:43:41.202Z,72.11
2023-03-19T09:44:41.142Z,72.34
2023-03-19T09:45:41.080Z,73.55
2023-03-19T09:46:41.056Z,72.85
2023-03-19T09:47:41.112Z,73.15
2023-03-19T09:48:41.061Z,72.68
2023-03-19T09:49:41.029Z,70.89
2023-03-19T09:50:41.100Z,71.33
2023-03-19T09:51:41.019Z,67.32
2023-03-19T09:52:40.971Z,71.57
2023-03-19T09:53:41.000Z,73.59
2023-03-19T09:54:40.957Z,73.49
2023-03-19T09:55:41.001Z,73.90
2023-03-19T09:56:40.928Z,71.88
2023-03-19T09:57:40.939Z,72.48
2023-03-19T09:58:40.939Z,72.78
2023-03-19T09:59:40.911Z,71.80
2023-03-19T10:00:40.937Z,73.46
2023-03-19T10:01:40.919Z,73.49
2023-03-19T10:02:40.851Z,73.49
2023-03-19T10:03:40.919Z,73.49
2023-03-19T10:04:40.838Z,74.21
2023-03-19T10:05:41.328Z,72.78
2023-03-19T10:06:40.849Z,71.30
2023-03-19T10:07:40.801Z,71.40
2023-03-19T10:08:40.779Z,72.58
2023-03-19T10:09:40.779Z,70.56
2023-03-19T10:10:40.750Z,70.05
2023-03-19T10:11:40.787Z,69.84
2023-03-19T10:12:40.707Z,69.03
2023-03-19T10:13:40.720Z,68.29
2023-03-19T10:14:40.709Z,68.29
2023-03-19T10:15:40.687Z,69.00
2023-03-19T10:16:40.728Z,69.31
2023-03-19T10:17:40.720Z,68.56
2023-03-19T10:18:40.668Z,68.77
2023-03-19T10:19:41.110Z,69.07
2023-03-19T10:20:40.609Z,67.05
2023-03-19T10:21:40.619Z,65.09
2023-03-19T10:22:40.567Z,64.89
2023-03-19T10:23:40.628Z,63.34
2023-03-19T10:24:40.559Z,64.12
2023-03-19T10:25:41.648Z,64.32
2023-03-19T10:26:40.532Z,63.68
2023-03-19T10:27:40.526Z,63.18
2023-03-19T10:28:40.509Z,63.85
2023-03-19T10:29:40.686Z,63.05
2023-03-19T10:30:40.498Z,60.62
2023-03-19T10:31:40.543Z,59.89
2023-03-19T10:32:40.463Z,60.19
2023-03-19T10:33:40.461Z,60.57
2023-03-19T10:34:40.477Z,59.15
2023-03-19T10:35:40.522Z,55.82
2023-03-19T10:36:40.458Z,56.12
2023-03-19T10:37:40.397Z,57.43
2023-03-19T10:38:40.368Z,57.10
2023-03-19T10:39:40.377Z,58.45
2023-03-19T10:40:40.397Z,57.54
2023-03-19T10:41:40.347Z,55.92
2023-03-19T10:42:40.323Z,55.62
2023-03-19T10:43:40.327Z,56.63
2023-03-19T10:44:40.287Z,55.72
2023-03-19T10:45:40.754Z,55.59
2023-03-19T10:46:40.348Z,55.69
2023-03-19T10:47:40.283Z,56.30
2023-03-19T10:48:40.238Z,55.49
2023-03-19T10:49:40.259Z,55.19
2023-03-19T10:50:40.207Z,55.39
2023-03-19T10:51:40.217Z,55.79
2023-03-19T10:52:40.356Z,54.96
2023-03-19T10:53:40.170Z,54.96
2023-03-19T10:54:40.186Z,56.90
2023-03-19T10:55:40.227Z,57.08
2023-03-19T10:56:40.128Z,54.66
2023-03-19T10:57:40.132Z,54.25
2023-03-19T10:58:40.107Z,54.86
2023-03-19T10:59:40.107Z,54.73
2023-03-19T11:00:40.111Z,53.52
2023-03-19T11:01:40.157Z,54.53
2023-03-19T11:02:40.048Z,55.21
2023-03-19T11:03:40.102Z,54.81
2023-03-19T11:04:40.040Z,53.30
2023-03-19T11:05:40.062Z,53.50
2023-03-19T11:06:40.006Z,53.40
2023-03-19T11:07:40.053Z,54.00
2023-03-19T11:08:39.963Z,53.70
2023-03-19T11:09:40.038Z,54.50
2023-03-19T11:10:39.954Z,53.80
2023-03-19T11:11:39.942Z,52.29
2023-03-19T11:12:39.909Z,52.77
2023-03-19T11:13:47.019Z,51.66
2023-03-19T11:14:39.887Z,51.84
2023-03-19T11:15:39.938Z,51.64
2023-03-19T11:16:42.628Z,51.34
2023-03-19T11:17:39.882Z,50.23
2023-03-19T11:18:39.880Z,51.34
2023-03-19T11:19:39.899Z,50.31
2023-03-19T11:20:40.078Z,50.51
2023-03-19T11:21:39.826Z,51.01
2023-03-19T11:22:39.793Z,50.38
2023-03-19T11:23:39.805Z,50.48
2023-03-19T11:24:39.780Z,49.98
2023-03-19T11:25:39.773Z,49.37
2023-03-19T11:26:39.795Z,49.77
2023-03-19T11:27:39.745Z,50.18
2023-03-19T11:28:39.714Z,50.78
2023-03-19T11:29:39.721Z,50.00
2023-03-19T11:30:39.686Z,51.18
2023-03-19T11:31:39.705Z,51.09
2023-03-19T11:32:39.780Z,50.15
2023-03-19T11:33:39.652Z,49.85
2023-03-19T11:34:39.623Z,49.93
2023-03-19T11:35:39.702Z,50.03
2023-03-19T11:36:39.610Z,50.13
2023-03-19T11:37:39.607Z,49.01
2023-03-19T11:38:39.633Z,49.40
2023-03-19T11:39:39.592Z,49.43
2023-03-19T11:40:39.567Z,50.13
2023-03-19T11:41:39.546Z,49.73
2023-03-19T11:42:39.546Z,49.13
2023-03-19T11:43:39.524Z,50.43
2023-03-19T11:44:39.551Z,49.85
2023-03-19T11:45:42.007Z,50.15
2023-03-19T11:46:39.509Z,50.26
2023-03-19T11:47:39.492Z,48.83
2023-03-19T11:48:39.672Z,49.13
2023-03-19T11:49:39.463Z,49.33
2023-03-19T11:50:39.616Z,49.53
2023-03-19T11:51:39.425Z,48.93
2023-03-19T11:52:39.414Z,49.63
2023-03-19T11:53:39.387Z,48.90
2023-03-19T11:54:39.368Z,48.83
2023-03-19T11:55:39.363Z,48.63
2023-03-19T11:56:39.384Z,49.02
2023-03-19T11:57:39.349Z,49.35
2023-03-19T11:58:39.335Z,49.25
2023-03-19T11:59:39.417Z,49.25
2023-03-19T12:00:39.410Z,49.35
2023-03-19T12:01:39.464Z,49.55
2023-03-19T12:02:39.296Z,49.85
2023-03-19T12:03:39.353Z,49.65
2023-03-19T12:04:39.234Z,49.05
2023-03-19T12:05:39.241Z,49.76
2023-03-19T12:06:39.337Z,48.75
2023-03-19T12:07:39.216Z,48.75
2023-03-19T12:08:39.183Z,48.14
2023-03-19T12:09:39.193Z,49.35
2023-03-19T12:10:39.157Z,48.72
2023-03-19T12:11:39.176Z,48.60
2023-03-19T12:12:39.219Z,48.58
2023-03-19T12:13:39.125Z,47.47
2023-03-19T12:14:39.113Z,47.47
2023-03-19T12:15:39.127Z,47.07
2023-03-19T12:16:45.753Z,47.30
2023-03-19T12:17:40.289Z,48.40
2023-03-19T12:18:39.045Z,48.30
2023-03-19T12:19:39.098Z,48.70
2023-03-19T12:20:39.036Z,49.58
2023-03-19T12:21:39.037Z,48.88
2023-03-19T12:22:39.003Z,47.30
2023-03-19T12:23:39.289Z,47.60
2023-03-19T12:24:38.974Z,47.50
2023-03-19T12:25:39.008Z,47.70
2023-03-19T12:26:39.057Z,47.80
2023-03-19T12:27:38.986Z,47.19
2023-03-19T12:28:38.967Z,47.09
2023-03-19T12:29:40.262Z,48.78
2023-03-19T12:30:38.907Z,48.55
2023-03-19T12:31:38.904Z,47.75
2023-03-19T12:32:38.895Z,46.83
2023-03-19T12:33:38.914Z,47.23
2023-03-19T12:34:38.852Z,46.65
2023-03-19T12:35:39.069Z,46.87
2023-03-19T12:36:38.812Z,47.90
2023-03-19T12:37:38.895Z,47.22
2023-03-19T12:38:38.804Z,48.12
2023-03-19T12:39:38.856Z,48.60
2023-03-19T12:40:38.982Z,47.60
2023-03-19T12:41:38.761Z,48.00
2023-03-19T12:42:38.732Z,47.77
2023-03-19T12:43:38.757Z,46.77
2023-03-19T12:44:38.712Z,46.67
2023-03-19T12:45:38.719Z,46.47
2023-03-19T12:46:38.848Z,45.83
2023-03-19T12:47:38.671Z,45.70
2023-03-19T12:48:38.678Z,45.10
2023-03-19T12:49:38.700Z,45.08
2023-03-19T12:50:38.629Z,44.86
2023-03-19T12:51:38.645Z,43.43
2023-03-19T12:52:38.666Z,43.76
2023-03-19T12:53:38.618Z,45.18
2023-03-19T12:54:38.609Z,45.06
2023-03-19T12:55:38.662Z,44.46
2023-03-19T12:56:38.592Z,44.06
2023-03-19T12:57:38.669Z,44.66
2023-03-19T12:58:38.527Z,44.66
2023-03-19T12:59:38.542Z,44.26
2023-03-19T13:00:38.561Z,44.26
2023-03-19T13:01:38.681Z,44.46
2023-03-19T13:02:38.535Z,45.08
2023-03-19T13:03:38.479Z,44.80
2023-03-19T13:04:45.522Z,45.02
2023-03-19T13:05:38.492Z,45.62
2023-03-19T13:06:42.775Z,45.53
2023-03-19T13:07:38.420Z,45.65
2023-03-19T13:08:38.398Z,45.87
2023-03-19T13:09:38.416Z,46.89
2023-03-19T13:10:38.364Z,47.72
2023-03-19T13:11:38.383Z,48.43
2023-03-19T13:12:38.401Z,48.85
2023-03-19T13:13:38.340Z,48.75
2023-03-19T13:14:38.322Z,48.75
2023-03-19T13:15:38.387Z,48.85
2023-03-19T13:16:38.340Z,49.25
2023-03-19T13:17:38.331Z,49.35
2023-03-19T13:18:38.351Z,49.35
2023-03-19T13:19:38.270Z,48.55
2023-03-19T13:20:38.229Z,48.44
2023-03-19T13:21:38.230Z,48.72
2023-03-19T13:22:38.222Z,48.72
2023-03-19T13:23:38.220Z,48.00
2023-03-19T13:24:38.250Z,47.90
2023-03-19T13:25:38.278Z,47.80
2023-03-19T13:26:38.160Z,47.27
2023-03-19T13:27:38.170Z,46.97
2023-03-19T13:28:38.141Z,46.57
2023-03-19T13:29:38.142Z,46.47
2023-03-19T13:30:38.137Z,46.67
2023-03-19T13:31:38.195Z,46.97
2023-03-19T13:32:38.109Z,47.17
2023-03-19T13:33:38.081Z,47.19
2023-03-19T13:34:38.051Z,47.19
2023-03-19T13:35:38.142Z,48.12
2023-03-19T13:36:38.032Z,47.92
2023-03-19T13:37:38.026Z,48.20
2023-03-19T13:38:38.013Z,48.12
2023-03-19T13:39:38.008Z,48.63
2023-03-19T13:40:37.981Z,48.32
2023-03-19T13:41:38.055Z,48.43
2023-03-19T13:42:37.971Z,48.83
2023-03-19T13:43:37.963Z,48.85
2023-03-19T13:44:37.924Z,48.75
2023-03-19T13:45:38.080Z,49.35
2023-03-19T13:46:37.967Z,49.65
2023-03-19T13:47:37.977Z,49.48
2023-03-19T13:48:37.860Z,49.98
2023-03-19T13:49:37.885Z,49.88
2023-03-19T13:50:38.199Z,49.98
2023-03-19T13:51:37.837Z,50.48
2023-03-19T13:52:37.810Z,49.98
2023-03-19T13:53:37.936Z,50.31
2023-03-19T13:54:37.797Z,50.31
2023-03-19T13:55:37.849Z,50.51
2023-03-19T13:56:37.787Z,50.43
2023-03-19T13:57:37.743Z,50.43
2023-03-19T13:58:37.812Z,50.85
2023-03-19T13:59:37.746Z,51.16
2023-03-19T14:00:37.751Z,51.86
2023-03-19T14:01:37.760Z,52.26
2023-03-19T14:02:37.727Z,51.97
2023-03-19T14:03:37.756Z,52.17
2023-03-19T14:04:37.673Z,52.57
2023-03-19T14:05:37.777Z,51.86
2023-03-19T14:06:37.721Z,51.66
2023-03-19T14:07:37.704Z,51.38
2023-03-19T14:08:37.625Z,51.48
2023-03-19T14:09:37.601Z,51.68
2023-03-19T14:10:37.609Z,51.99
2023-03-19T14:11:37.558Z,52.09
2023-03-19T14:12:37.583Z,52.29
2023-03-19T14:13:37.591Z,52.62
2023-03-19T14:14:37.556Z,53.02
2023-03-19T14:15:37.515Z,52.84
2023-03-19T14:16:37.573Z,53.65
2023-03-19T14:17:37.510Z,54.16
2023-03-19T14:18:37.513Z,55.09
2023-03-19T14:19:37.883Z,55.90
2023-03-19T14:20:40.835Z,56.12
2023-03-19T14:21:37.457Z,56.96
2023-03-19T14:22:37.452Z,57.46
2023-03-19T14:23:42.713Z,57.76
2023-03-19T14:24:56.815Z,57.76
2023-03-19T14:25:38.426Z,57.67
2023-03-19T14:26:37.395Z,57.56
2023-03-19T14:27:37.359Z,58.50
2023-03-19T14:28:37.376Z,58.83
2023-03-19T14:29:37.325Z,59.14
2023-03-19T14:30:37.890Z,59.84
2023-03-19T14:31:37.436Z,59.74
2023-03-19T14:32:37.336Z,60.14
2023-03-19T14:33:37.277Z,60.38
2023-03-19T14:34:37.283Z,60.61
2023-03-19T14:35:37.381Z,60.81
2023-03-19T14:36:37.306Z,61.11
2023-03-19T14:37:37.304Z,60.41
2023-03-19T14:38:37.233Z,61.24
2023-03-19T14:39:39.506Z,61.14
2023-03-19T14:40:37.383Z,60.94
2023-03-19T14:41:37.191Z,60.94
2023-03-19T14:42:37.174Z,60.74
2023-03-19T14:43:37.214Z,61.07
2023-03-19T14:44:37.147Z,60.97
2023-03-19T14:45:37.166Z,61.17
2023-03-19T14:46:37.127Z,61.51
2023-03-19T14:47:37.103Z,61.51
2023-03-19T14:48:37.114Z,62.62
2023-03-19T14:49:37.118Z,64.37
2023-03-19T14:50:38.250Z,65.28
2023-03-19T14:51:37.037Z,67.85
2023-03-19T14:52:37.045Z,67.44
2023-03-19T14:53:37.075Z,72.55
2023-03-19T14:54:37.038Z,80.24
2023-03-19T14:55:37.241Z,90.17
2023-03-19T14:56:37.009Z,92.13
2023-03-19T14:57:36.989Z,96.86
2023-03-19T14:58:36.966Z,99.60
2023-03-19T14:59:36.941Z,99.99
2023-03-19T15:00:36.996Z,99.99
2023-03-19T15:01:37.039Z,99.99
2023-03-19T15:02:36.916Z,99.99
2023-03-19T15:03:36.874Z,99.99
2023-03-19T15:04:36.962Z,99.99
2023-03-19T15:05:37.300Z,99.99
2023-03-19T15:06:36.871Z,99.99
2023-03-19T15:07:36.887Z,99.99
2023-03-19T15:08:36.825Z,99.99
2023-03-19T15:09:36.801Z,99.99
2023-03-19T15:10:36.870Z,99.99
2023-03-19T15:11:36.769Z,99.99
2023-03-19T15:12:36.793Z,99.99
2023-03-19T15:13:36.744Z,99.99
2023-03-19T15:14:36.784Z,99.99
2023-03-19T15:15:37.042Z,99.99
2023-03-19T15:16:36.844Z,99.99
2023-03-19T15:17:38.680Z,99.99
2023-03-19T15:18:36.765Z,99.99
2023-03-19T15:19:36.663Z,99.99
2023-03-19T15:20:36.682Z,99.99
2023-03-19T15:21:36.652Z,99.99
2023-03-19T15:22:36.708Z,99.99
2023-03-19T15:23:36.612Z,99.99
2023-03-19T15:24:36.614Z,99.99
2023-03-19T15:25:36.920Z,99.99
2023-03-19T15:26:36.603Z,99.79
2023-03-19T15:27:36.559Z,99.99
2023-03-19T15:28:38.486Z,99.99
2023-03-19T15:29:38.132Z,99.99
2023-03-19T15:30:50.424Z,99.99
2023-03-19T15:31:49.523Z,99.99
2023-03-19T15:32:54.432Z,96.78
2023-03-19T15:33:41.559Z,96.17
2023-03-19T15:34:37.650Z,94.53
2023-03-19T15:35:36.522Z,92.90
2023-03-19T15:36:36.450Z,91.47
2023-03-19T15:37:36.427Z,89.53
2023-03-19T15:38:36.527Z,89.53
2023-03-19T15:39:36.475Z,90.04
2023-03-19T15:40:36.608Z,91.06
2023-03-19T15:41:36.380Z,90.96
2023-03-19T15:42:36.388Z,96.58
2023-03-19T15:43:36.338Z,98.41
2023-03-19T15:44:36.363Z,99.99
2023-03-19T15:45:36.374Z,99.99
2023-03-19T15:46:36.394Z,99.99
2023-03-19T15:47:36.288Z,99.99
2023-03-19T15:48:36.307Z,99.99
2023-03-19T15:49:36.318Z,99.99
2023-03-19T15:50:36.688Z,99.99
2023-03-19T15:51:36.310Z,99.59
2023-03-19T15:52:36.242Z,99.99
2023-03-19T15:53:36.215Z,99.99
2023-03-19T15:54:36.218Z,99.99
2023-03-19T15:55:36.571Z,99.99
2023-03-19T15:56:36.224Z,99.99
2023-03-19T15:57:36.235Z,99.99
2023-03-19T15:58:36.187Z,99.99
2023-03-19T15:59:36.126Z,99.99
2023-03-19T16:00:38.702Z,99.19
2023-03-19T16:01:36.176Z,99.60
2023-03-19T16:02:36.135Z,99.40
2023-03-19T16:03:36.124Z,99.99
2023-03-19T16:04:50.304Z,99.99
2023-03-19T16:05:37.068Z,99.29
2023-03-19T16:06:36.070Z,98.27
2023-03-19T16:07:36.028Z,98.02
2023-03-19T16:08:36.038Z,99.54
2023-03-19T16:09:36.070Z,99.99
2023-03-19T16:10:36.300Z,99.99
2023-03-19T16:11:35.984Z,99.99
2023-03-19T16:12:35.977Z,99.99
2023-03-19T16:13:36.018Z,99.75
2023-03-19T16:14:35.982Z,99.24
2023-03-19T16:15:36.065Z,99.99
2023-03-19T16:16:35.934Z,99.99
2023-03-19T16:17:35.941Z,99.99
2023-03-19T16:18:35.909Z,99.99
2023-03-19T16:19:35.877Z,99.99
2023-03-19T16:20:36.223Z,99.99
2023-03-19T16:21:35.846Z,99.99
2023-03-19T16:22:35.858Z,99.99
2023-03-19T16:23:35.847Z,99.99
2023-03-19T16:24:35.823Z,99.99
2023-03-19T16:25:36.041Z,99.99
2023-03-19T16:26:35.841Z,99.99
2023-03-19T16:27:35.758Z,97.46
2023-03-19T16:28:35.785Z,97.97
2023-03-19T16:29:35.739Z,99.99
2023-03-19T16:30:35.909Z,99.99
2023-03-19T16:31:35.772Z,99.99
2023-03-19T16:32:35.800Z,99.99
2023-03-19T16:33:35.694Z,99.99
2023-03-19T16:34:35.709Z,99.99
2023-03-19T16:35:35.743Z,99.99
2023-03-19T16:36:35.654Z,99.99
2023-03-19T16:37:35.622Z,99.99
2023-03-19T16:38:35.701Z,99.99
2023-03-19T16:39:35.608Z,99.99
2023-03-19T16:40:35.819Z,99.99
2023-03-19T16:41:35.659Z,99.99
2023-03-19T16:42:35.590Z,99.99
2023-03-19T16:43:35.541Z,99.99
2023-03-19T16:44:35.617Z,99.99
2023-03-19T16:45:35.787Z,99.99
2023-03-19T16:46:35.645Z,99.99
2023-03-19T16:47:35.501Z,99.99
2023-03-19T16:48:35.602Z,99.99
2023-03-19T16:49:35.471Z,99.99
2023-03-19T16:50:35.573Z,99.99
2023-03-19T16:51:35.440Z,99.99
2023-03-19T16:52:35.439Z,99.99
2023-03-19T16:53:35.408Z,99.99
2023-03-19T16:54:35.436Z,99.99
2023-03-19T16:55:35.705Z,99.99
2023-03-19T16:56:35.460Z,99.99
2023-03-19T16:57:35.388Z,99.99
2023-03-19T16:58:35.367Z,99.99
2023-03-19T16:59:35.336Z,99.99
2023-03-19T17:00:35.356Z,99.99
2023-03-19T17:01:35.332Z,99.99
2023-03-19T17:02:35.411Z,99.99
2023-03-19T17:03:35.285Z,99.99
2023-03-19T17:04:35.315Z,99.99
2023-03-19T17:05:35.547Z,99.99
2023-03-19T17:06:35.264Z,99.99
2023-03-19T17:07:35.227Z,99.99
2023-03-19T17:08:35.275Z,99.99
2023-03-19T17:09:35.205Z,99.99
2023-03-19T17:10:35.202Z,99.99
2023-03-19T17:11:35.246Z,99.99
2023-03-19T17:12:35.188Z,99.99
2023-03-19T17:13:35.174Z,99.99
2023-03-19T17:14:35.205Z,99.02
2023-03-19T17:15:35.414Z,99.22
2023-03-19T17:16:35.253Z,99.99
2023-03-19T17:17:35.114Z,99.99
2023-03-19T17:18:35.146Z,99.99
2023-03-19T17:19:35.082Z,99.99
2023-03-19T17:20:35.090Z,99.99
2023-03-19T17:21:35.104Z,99.99
2023-03-19T17:22:35.062Z,99.98
2023-03-19T17:23:35.043Z,98.96
2023-03-19T17:24:35.053Z,99.27
2023-03-19T17:25:35.330Z,99.16
2023-03-19T17:26:35.019Z,99.27
2023-03-19T17:27:35.050Z,99.37
2023-03-19T17:28:35.040Z,99.27
2023-03-19T17:29:34.949Z,99.78
2023-03-19T17:30:35.368Z,99.16
2023-03-19T17:31:34.942Z,99.88
2023-03-19T17:32:34.978Z,99.99
2023-03-19T17:33:34.949Z,99.99
2023-03-19T17:34:34.909Z,99.99
2023-03-19T17:35:34.946Z,99.99
2023-03-19T17:36:34.896Z,99.99
2023-03-19T17:37:34.856Z,99.99
2023-03-19T17:38:34.907Z,99.99
2023-03-19T17:39:34.827Z,99.99
2023-03-19T17:40:35.097Z,99.99
2023-03-19T17:41:34.863Z,99.99
2023-03-19T17:42:34.801Z,99.99
2023-03-19T17:43:34.777Z,99.99
2023-03-19T17:44:34.788Z,99.99
2023-03-19T17:45:34.749Z,99.99
2023-03-19T17:46:34.791Z,99.99
2023-03-19T17:47:34.769Z,99.99
2023-03-19T17:48:34.761Z,99.99
2023-03-19T17:49:34.712Z,99.99
2023-03-19T17:50:35.013Z,99.99
2023-03-19T17:51:34.665Z,99.99
2023-03-19T17:52:34.684Z,99.99